createdAt,value
2022-08-24T00:02:47.116Z,19.88
2022-08-24T00:07:51.360Z,19.80
2022-08-24T00:12:54.877Z,19.75
2022-08-24T00:17:59.876Z,19.74
2022-08-24T00:23:03.358Z,19.70
2022-08-24T00:28:07.443Z,19.72
2022-08-24T00:33:12.260Z,19.74
2022-08-24T00:38:16.985Z,19.72
2022-08-24T00:43:23.522Z,19.74
2022-08-24T00:48:33.184Z,19.73
2022-08-24T00:53:41.480Z,19.68
2022-08-24T00:58:47.796Z,19.67
2022-08-24T01:04:02.616Z,19.65
2022-08-24T01:09:08.050Z,19.60
2022-08-24T01:14:13.896Z,19.56
2022-08-24T01:19:30.717Z,19.58
2022-08-24T01:24:37.596Z,19.51
2022-08-24T01:29:43.283Z,19.46
2022-08-24T01:34:47.550Z,19.42
2022-08-24T01:39:55.487Z,19.39
2022-08-24T01:45:00.033Z,19.29
2022-08-24T01:50:03.917Z,19.09
2022-08-24T01:55:10.429Z,19.22
2022-08-24T02:00:16.531Z,19.18
2022-08-24T02:05:20.582Z,19.12
2022-08-24T02:10:25.960Z,19.09
2022-08-24T02:15:32.485Z,19.06
2022-08-24T02:20:36.663Z,19.03
2022-08-24T02:25:41.576Z,18.92
2022-08-24T02:30:45.224Z,18.87
2022-08-24T02:35:48.722Z,18.86
2022-08-24T02:40:53.713Z,18.84
2022-08-24T02:45:57.196Z,18.82
2022-08-24T02:51:00.755Z,18.92
2022-08-24T02:56:05.888Z,18.96
2022-08-24T03:01:15.920Z,19.00
2022-08-24T03:06:27.516Z,19.06
2022-08-24T03:11:32.576Z,19.18
2022-08-24T03:16:36.656Z,19.32
2022-08-24T03:21:40.147Z,19.50
2022-08-24T03:26:45.302Z,19.64
2022-08-24T03:31:49.508Z,19.74
2022-08-24T03:36:53.053Z,19.86
2022-08-24T03:41:58.196Z,20.04
2022-08-24T03:47:01.955Z,20.21
2022-08-24T03:52:06.273Z,20.46
2022-08-24T03:57:11.242Z,20.69
2022-08-24T04:02:14.932Z,21.31
2022-08-24T04:07:18.680Z,23.35
2022-08-24T04:12:23.864Z,24.82
2022-08-24T04:17:27.275Z,25.75
2022-08-24T04:22:34.313Z,27.12
2022-08-24T04:27:39.787Z,27.97
2022-08-24T04:32:43.659Z,28.75
2022-08-24T04:37:46.988Z,29.95
2022-08-24T04:42:51.976Z,30.62
2022-08-24T04:47:55.408Z,31.39
2022-08-24T04:53:00.703Z,31.98
2022-08-24T04:58:05.628Z,32.08
2022-08-24T05:03:09.129Z,31.77
2022-08-24T05:08:15.505Z,31.53
2022-08-24T05:13:20.311Z,30.61
2022-08-24T05:18:23.742Z,30.96
2022-08-24T05:23:27.531Z,31.03
2022-08-24T05:28:32.388Z,31.09
2022-08-24T05:33:35.991Z,32.20
2022-08-24T05:38:39.410Z,32.31
2022-08-24T05:43:45.259Z,33.52
2022-08-24T05:48:52.573Z,35.11
2022-08-24T05:53:57.389Z,35.55
2022-08-24T05:59:02.310Z,35.69
2022-08-24T06:04:06.654Z,36.74
2022-08-24T06:09:12.827Z,39.71
2022-08-24T06:14:21.802Z,42.07
2022-08-24T06:19:28.357Z,44.22
2022-08-24T06:24:49.294Z,45.71
2022-08-24T06:29:57.311Z,48.38
2022-08-24T06:35:00.867Z,49.75
2022-08-24T06:40:04.995Z,50.64
2022-08-24T06:45:11.677Z,50.71
2022-08-24T06:50:15.146Z,49.65
2022-08-24T06:55:18.789Z,50.45
2022-08-24T07:00:25.174Z,50.58
2022-08-24T07:05:29.021Z,51.69
2022-08-24T07:10:33.460Z,51.07
2022-08-24T07:15:38.362Z,51.75
2022-08-24T07:20:42.693Z,51.35
2022-08-24T07:25:49.580Z,50.00
2022-08-24T07:30:55.432Z,50.11
2022-08-24T07:35:59.194Z,51.00
2022-08-24T07:41:35.449Z,49.46
2022-08-24T07:46:30.945Z,47.60
2022-08-24T07:51:35.288Z,47.76
2022-08-24T07:56:38.814Z,49.17
2022-08-24T08:01:43.988Z,47.34
2022-08-24T08:06:48.434Z,47.20
2022-08-24T08:11:52.074Z,45.21
2022-08-24T08:16:57.372Z,44.36
2022-08-24T08:22:18.081Z,43.25
2022-08-24T08:27:21.985Z,42.62
2022-08-24T08:32:26.784Z,41.75
2022-08-24T08:37:31.323Z,39.84
2022-08-24T08:42:46.432Z,38.98
2022-08-24T08:48:25.178Z,37.30
2022-08-24T08:53:53.236Z,36.68
2022-08-24T08:59:04.488Z,36.47
2022-08-24T09:04:25.274Z,34.97
2022-08-24T09:09:54.538Z,34.70
2022-08-24T09:15:32.121Z,33.93
2022-08-24T09:20:58.995Z,33.43
2022-08-24T09:26:10.725Z,33.39
2022-08-24T09:31:51.163Z,33.01
2022-08-24T09:37:02.743Z,33.31
2022-08-24T09:42:49.424Z,32.78
2022-08-24T09:48:30.996Z,32.88
2022-08-24T09:54:03.642Z,32.55
2022-08-24T09:59:25.886Z,32.53
2022-08-24T10:04:37.919Z,32.53
2022-08-24T10:10:04.975Z,32.83
2022-08-24T10:15:18.054Z,32.29
2022-08-24T10:20:25.333Z,32.75
2022-08-24T10:25:38.115Z,32.42
2022-08-24T10:31:05.660Z,32.24
2022-08-24T10:36:27.459Z,32.25
2022-08-24T10:42:33.324Z,32.52
2022-08-24T10:47:42.249Z,32.38
2022-08-24T10:53:13.365Z,32.34
2022-08-24T10:58:51.966Z,32.52
2022-08-24T11:04:01.622Z,32.14
2022-08-24T11:09:09.847Z,32.31
2022-08-24T11:14:25.724Z,32.33
2022-08-24T11:19:35.358Z,32.35
2022-08-24T11:24:45.144Z,32.25
2022-08-24T11:30:14.531Z,32.25
2022-08-24T11:35:24.834Z,32.31
2022-08-24T11:40:30.641Z,32.04
2022-08-24T11:45:42.734Z,31.88
2022-08-24T11:50:58.642Z,32.07
2022-08-24T11:56:11.490Z,32.01
2022-08-24T12:01:21.835Z,31.87
2022-08-24T12:06:42.844Z,32.01
2022-08-24T12:11:54.728Z,32.06
2022-08-24T12:17:05.907Z,31.85
2022-08-24T12:22:12.939Z,31.60
2022-08-24T12:27:21.583Z,31.52
2022-08-24T12:32:30.027Z,31.64
2022-08-24T12:37:40.774Z,31.82
2022-08-24T12:42:52.209Z,31.94
2022-08-24T12:48:04.848Z,31.91
2022-08-24T12:53:30.304Z,31.74
2022-08-24T12:59:01.996Z,31.78
2022-08-24T13:04:15.689Z,31.51
2022-08-24T13:09:33.423Z,31.73
2022-08-24T13:14:36.948Z,31.76
2022-08-24T13:19:44.574Z,31.81
2022-08-24T13:24:54.802Z,31.79
2022-08-24T13:30:07.840Z,31.63
2022-08-24T13:35:25.830Z,31.39
2022-08-24T13:40:31.941Z,31.44
2022-08-24T13:45:38.189Z,31.50
2022-08-24T13:50:59.398Z,31.39
2022-08-24T13:56:44.564Z,31.51
2022-08-24T14:02:04.886Z,31.44
2022-08-24T14:13:00.762Z,31.23
2022-08-24T14:18:12.342Z,31.17
2022-08-24T14:23:29.260Z,31.09
2022-08-24T14:28:40.954Z,30.97
2022-08-24T14:33:52.343Z,30.82
2022-08-24T14:39:14.645Z,30.85
2022-08-24T14:44:45.055Z,30.67
2022-08-24T14:50:08.039Z,30.46
2022-08-24T14:55:24.512Z,30.49
2022-08-24T15:00:50.764Z,30.45
2022-08-24T15:06:26.406Z,30.30
2022-08-24T15:11:31.864Z,30.21
2022-08-24T15:16:53.386Z,30.18
2022-08-24T15:22:02.932Z,30.03
2022-08-24T15:27:20.209Z,29.87
2022-08-24T15:32:28.237Z,29.71
2022-08-24T15:37:37.726Z,29.57
2022-08-24T15:42:41.460Z,29.45
2022-08-24T15:47:51.896Z,29.35
2022-08-24T15:53:01.198Z,29.22
2022-08-24T15:58:31.126Z,29.02
2022-08-24T16:03:48.805Z,28.76
2022-08-24T16:09:03.829Z,28.57
2022-08-24T16:14:13.167Z,28.43
2022-08-24T16:19:25.352Z,28.18
2022-08-24T16:24:33.944Z,27.89
2022-08-24T16:30:21.146Z,27.60
2022-08-24T16:35:26.755Z,27.25
2022-08-24T16:40:33.194Z,26.95
2022-08-24T16:45:37.244Z,26.63
2022-08-24T16:50:42.776Z,26.22
2022-08-24T16:55:48.902Z,25.97
2022-08-24T17:00:53.474Z,25.69
2022-08-24T17:06:00.344Z,25.37
2022-08-24T17:11:05.101Z,25.13
2022-08-24T17:16:10.455Z,24.87
2022-08-24T17:21:15.378Z,24.66
2022-08-24T17:26:21.824Z,24.46
2022-08-24T17:31:25.999Z,24.21
2022-08-24T17:36:32.497Z,24.11
2022-08-24T17:41:36.243Z,23.84
2022-08-24T17:46:40.908Z,23.65
2022-08-24T17:51:45.917Z,23.51
2022-08-24T17:56:51.081Z,23.32
2022-08-24T18:01:57.565Z,23.19
2022-08-24T18:07:07.396Z,23.07
2022-08-24T18:12:16.973Z,22.91
2022-08-24T18:17:25.109Z,22.63
2022-08-24T18:22:30.745Z,22.56
2022-08-24T18:27:34.670Z,22.45
2022-08-24T18:32:41.371Z,22.38
2022-08-24T18:37:47.261Z,22.21
2022-08-24T18:42:51.918Z,22.11
2022-08-24T18:47:55.675Z,21.97
2022-08-24T18:53:01.121Z,21.94
2022-08-24T18:58:05.600Z,21.82
2022-08-24T19:03:10.522Z,21.71
2022-08-24T19:08:15.522Z,21.64
2022-08-24T19:13:19.568Z,21.51
2022-08-24T19:18:24.154Z,21.44
2022-08-24T19:23:34.096Z,21.31
2022-08-24T19:28:39.029Z,21.29
2022-08-24T19:33:49.841Z,21.25
2022-08-24T19:38:55.284Z,21.17
2022-08-24T19:44:27.234Z,21.06
2022-08-24T19:49:31.228Z,20.98
2022-08-24T19:54:38.964Z,20.90
2022-08-24T19:59:45.151Z,20.80
2022-08-24T20:04:48.587Z,20.68
2022-08-24T20:09:53.993Z,20.66
2022-08-24T20:14:57.561Z,20.58
2022-08-24T20:20:02.399Z,20.47
2022-08-24T20:25:09.276Z,20.45
2022-08-24T20:30:15.406Z,20.43
2022-08-24T20:35:18.847Z,20.34
2022-08-24T20:40:24.771Z,20.31
2022-08-24T20:45:28.887Z,20.23
2022-08-24T20:50:32.511Z,20.18
2022-08-24T20:55:38.814Z,20.16
2022-08-24T21:00:45.205Z,20.09
2022-08-24T21:05:53.101Z,20.05
2022-08-24T21:10:59.329Z,20.02
2022-08-24T21:16:04.752Z,19.99
2022-08-24T21:21:08.838Z,19.93
2022-08-24T21:26:16.634Z,19.89
2022-08-24T21:31:20.933Z,19.80
2022-08-24T21:36:26.701Z,19.77
2022-08-24T21:41:32.408Z,19.73
2022-08-24T21:46:39.041Z,19.64
2022-08-24T21:51:43.587Z,19.51
2022-08-24T21:56:48.911Z,19.54
2022-08-24T22:01:53.407Z,19.42
2022-08-24T22:06:57.557Z,19.37
2022-08-24T22:12:03.091Z,19.35
2022-08-24T22:17:06.586Z,19.28
2022-08-24T22:22:10.358Z,19.23
2022-08-24T22:27:16.061Z,19.15
2022-08-24T22:32:19.832Z,18.93
2022-08-24T22:37:23.315Z,18.96
2022-08-24T22:42:28.201Z,18.94
2022-08-24T22:47:31.917Z,18.88
2022-08-24T22:52:36.575Z,18.68
2022-08-24T22:57:42.480Z,18.61
2022-08-24T23:02:48.046Z,18.62
2022-08-24T23:07:52.289Z,18.59
2022-08-24T23:12:57.273Z,18.57
2022-08-24T23:18:20.794Z,18.47
2022-08-24T23:23:24.667Z,18.38
2022-08-24T23:28:31.558Z,18.39
2022-08-24T23:33:35.544Z,18.22
2022-08-24T23:38:43.761Z,18.19
2022-08-24T23:43:49.155Z,18.16
2022-08-24T23:48:55.878Z,18.03
2022-08-24T23:54:00.354Z,18.01
2022-08-24T23:59:08.943Z,18.03
